Tropical Cyclones
[Index]
Main Index Home Page Stock Weather Photos Extreme Storms Discussion Storm News and Storm Chasing Reports Tropical Cyclones / Hurricanes / Typhoons Weather Data and Links Wild Fires / Bushfires Weather Observation Techniques Weather Picture Catalogue Tornado Pictures and Reports Stock Video Footage and DVDs for sale
Season 1976-1977 Tropical Cyclone JUNE Track Map
Season 1976-1977 Summaries: [BoM-AU] [JTWC-AU] [JTWC-SIO] [JTWC-SPAC] [JTWC-SH]
<<- Previous TC | JTWC 1976-1977 Season | Next TC ->>

click for intensity scale information  Lat/long Grid: Show Hide

 Date Labels: Show Hide

Joint Typhoon Warning Centre Cyclone Data

Name: JUNE
Number: 939 / 7708

17 Jan 1977 00:00 UTC to 26 Jan 1977 00:00 UTC

    date/time    lat    long     hPa   cat  kts
1977-01-17 00   15.4   149.5                  25          
1977-01-17 06   15.9   150.0                  25          
1977-01-17 12   16.4   150.5                  25          
1977-01-17 18   16.8   150.5                  30          
1977-01-18 00   17.2   151.0                  35          
1977-01-18 06   17.4   152.5            1     40          
1977-01-18 12   17.5   154.0            1     40          
1977-01-18 18   17.2   155.5            1     40          
1977-01-19 00   17.0   157.0            1     45          
1977-01-19 06   17.0   159.2            1     50          
1977-01-19 12   17.0   161.5            2     55          
1977-01-19 18   17.0   163.0            2     60          
1977-01-20 00   17.0   164.5            2     65          
1977-01-20 06   17.0   166.7            2     70          
1977-01-20 12   17.2   168.8            2     70          
1977-01-20 18   17.7   170.6            2     70          
1977-01-21 00   18.3   172.0            2     65          
1977-01-21 06   18.7   173.0            2     65          
1977-01-21 12   19.2   174.0            2     65          
1977-01-21 18   20.1   175.1            2     65          
1977-01-22 00   21.0   175.8            2     65          
1977-01-22 06   21.6   175.5            2     60          
1977-01-22 12   21.9   174.8            2     55          
1977-01-22 18   22.0   174.2            1     45          
1977-01-23 00   22.0   173.5            1     40          
1977-01-23 06   21.8   171.9                  35          
1977-01-23 12   21.7   170.0                  35          
1977-01-23 18   21.9   168.6                  30          
1977-01-24 00   22.1   167.5                  30          
1977-01-24 06   22.4   166.7                  30          
1977-01-24 12   22.5   166.0                  25          
1977-01-24 18   22.3   165.4                  25          
1977-01-25 00   22.0   165.0                  25          
1977-01-25 06   21.8   164.7                  25          
1977-01-25 12   21.5   164.4                  25          
1977-01-25 18   21.3   164.2                  25          
1977-01-26 00   21.2   164.0                  25          
Winds are 1-min average.

Tropical cyclone tracks developed by Michael Bath using data from the Joint Typhoon Warning Centre Best Tracks and Google Maps.


[Australian Severe Weather index] [Copyright Notice] [Email Contacts] [Search This Site] [Privacy Policy]
Document: tropical_cyclone_june.htm Updated: 18 September 2016